createdAt,value
2018-02-11T00:01:26.464Z,89.17
2018-02-11T00:03:57.294Z,88.72
2018-02-11T00:06:28.277Z,89.09
2018-02-11T00:08:59.157Z,89.44
2018-02-11T00:11:31.033Z,89.41
2018-02-11T00:14:01.906Z,89.56
2018-02-11T00:16:32.905Z,89.43
2018-02-11T00:19:03.733Z,89.76
2018-02-11T00:21:34.625Z,89.76
2018-02-11T00:24:05.528Z,89.79
2018-02-11T00:26:36.433Z,89.33
2018-02-11T00:29:07.245Z,89.47
2018-02-11T00:31:38.172Z,89.84
2018-02-11T00:34:09.047Z,90.12
2018-02-11T00:36:45.937Z,90.68
2018-02-11T00:39:16.780Z,90.31
2018-02-11T00:41:47.709Z,90.68
2018-02-11T00:44:18.599Z,90.88
2018-02-11T00:46:49.796Z,90.75
2018-02-11T00:49:20.788Z,90.68
2018-02-11T00:51:52.369Z,90.70
2018-02-11T00:54:23.429Z,90.56
2018-02-11T00:56:54.388Z,90.19
2018-02-11T00:59:25.462Z,90.09
2018-02-11T01:01:56.472Z,89.67
2018-02-11T01:04:27.330Z,90.23
2018-02-11T01:06:58.238Z,90.65
2018-02-11T01:09:29.069Z,90.90
2018-02-11T01:11:59.999Z,90.57
2018-02-11T01:14:30.896Z,90.32
2018-02-11T01:17:01.793Z,90.30
2018-02-11T01:19:32.693Z,90.09
2018-02-11T01:22:03.643Z,90.20
2018-02-11T01:24:34.456Z,90.32
2018-02-11T01:27:05.344Z,90.47
2018-02-11T01:29:36.213Z,90.00
2018-02-11T01:32:07.054Z,90.18
2018-02-11T01:34:37.909Z,90.48
2018-02-11T01:37:08.729Z,90.18
2018-02-11T01:39:39.589Z,90.46
2018-02-11T01:42:10.437Z,90.28
2018-02-11T01:44:41.256Z,90.25
2018-02-11T01:47:12.413Z,90.40
2018-02-11T01:49:43.282Z,90.76
2018-02-11T01:52:14.142Z,91.01
2018-02-11T01:54:44.988Z,91.16
2018-02-11T01:57:15.877Z,90.97
2018-02-11T01:59:46.722Z,90.85
2018-02-11T02:02:17.558Z,91.10
2018-02-11T02:04:48.415Z,91.09
2018-02-11T02:07:19.233Z,91.04
2018-02-11T02:09:50.150Z,91.05
2018-02-11T02:12:20.950Z,90.89
2018-02-11T02:14:51.825Z,91.34
2018-02-11T02:17:22.685Z,91.38
2018-02-11T02:19:53.516Z,91.04
2018-02-11T02:22:24.341Z,91.51
2018-02-11T02:24:55.205Z,91.50
2018-02-11T02:27:26.106Z,91.64
2018-02-11T02:29:58.758Z,91.40
2018-02-11T02:32:29.585Z,91.04
2018-02-11T02:35:00.441Z,91.29
2018-02-11T02:37:31.250Z,91.51
2018-02-11T02:40:02.241Z,91.33
2018-02-11T02:42:33.105Z,91.46
2018-02-11T02:45:03.948Z,91.77
2018-02-11T02:47:34.796Z,91.80
2018-02-11T02:50:05.723Z,91.99
2018-02-11T02:52:36.577Z,92.19
2018-02-11T02:55:07.417Z,92.46
2018-02-11T02:57:38.237Z,92.78
2018-02-11T03:00:09.104Z,92.54
2018-02-11T03:02:39.898Z,92.68
2018-02-11T03:05:10.837Z,93.59
2018-02-11T03:07:41.623Z,93.77
2018-02-11T03:10:12.543Z,93.72
2018-02-11T03:12:43.405Z,93.77
2018-02-11T03:15:14.260Z,93.89
2018-02-11T03:17:45.258Z,93.91
2018-02-11T03:20:16.161Z,93.96
2018-02-11T03:22:47.069Z,94.04
2018-02-11T03:25:17.888Z,94.12
2018-02-11T03:27:48.742Z,94.34
2018-02-11T03:30:19.761Z,94.50
2018-02-11T03:32:50.606Z,94.71
2018-02-11T03:35:21.454Z,94.71
2018-02-11T03:37:52.322Z,94.43
2018-02-11T03:40:23.189Z,94.14
2018-02-11T03:42:54.031Z,93.97
2018-02-11T03:45:24.869Z,93.94
2018-02-11T03:47:55.709Z,93.97
2018-02-11T03:50:26.545Z,93.40
2018-02-11T03:52:57.429Z,93.33
2018-02-11T03:55:28.265Z,93.24
2018-02-11T03:57:59.115Z,93.11
2018-02-11T04:00:29.948Z,92.98
2018-02-11T04:03:00.785Z,92.44
2018-02-11T04:05:31.704Z,92.51
2018-02-11T04:08:02.560Z,92.20
2018-02-11T04:10:33.432Z,92.07
2018-02-11T04:13:04.336Z,92.19
2018-02-11T04:15:35.182Z,92.07
2018-02-11T04:18:06.014Z,91.44
2018-02-11T04:20:36.854Z,91.48
2018-02-11T04:23:07.686Z,91.12
2018-02-11T04:25:38.527Z,91.32
2018-02-11T04:28:09.394Z,91.44
2018-02-11T04:30:40.200Z,91.16
2018-02-11T04:33:11.144Z,91.07
2018-02-11T04:35:41.953Z,90.70
2018-02-11T04:38:12.808Z,90.77
2018-02-11T04:40:43.707Z,90.33
2018-02-11T04:43:14.550Z,90.69
2018-02-11T04:45:45.359Z,90.98
2018-02-11T04:48:16.230Z,90.88
2018-02-11T04:50:47.092Z,90.59
2018-02-11T04:53:17.993Z,90.13
2018-02-11T04:55:48.806Z,89.95
2018-02-11T04:58:19.641Z,90.42
2018-02-11T05:00:50.485Z,90.27
2018-02-11T05:03:21.402Z,90.02
2018-02-11T05:05:52.199Z,90.42
2018-02-11T05:08:23.079Z,90.44
2018-02-11T05:10:53.895Z,90.73
2018-02-11T05:13:24.747Z,90.14
2018-02-11T05:15:55.586Z,90.43
2018-02-11T05:18:26.465Z,90.26
2018-02-11T05:20:57.303Z,89.64
2018-02-11T05:23:28.346Z,89.94
2018-02-11T05:25:59.179Z,90.04
2018-02-11T05:28:30.038Z,89.71
2018-02-11T05:31:00.853Z,89.68
2018-02-11T05:33:31.735Z,90.03
2018-02-11T05:36:02.556Z,90.16
2018-02-11T05:38:33.477Z,90.11
2018-02-11T05:41:04.312Z,89.72
2018-02-11T05:43:35.137Z,89.28
2018-02-11T05:46:06.005Z,89.07
2018-02-11T05:48:36.846Z,89.28
2018-02-11T05:51:07.677Z,89.04
2018-02-11T05:53:38.516Z,89.20
2018-02-11T05:56:09.366Z,89.07
2018-02-11T05:58:40.222Z,89.01
2018-02-11T06:01:11.065Z,89.12
2018-02-11T06:03:41.976Z,88.72
2018-02-11T06:06:12.809Z,88.88
2018-02-11T06:08:43.726Z,89.05
2018-02-11T06:11:14.556Z,88.79
2018-02-11T06:13:45.453Z,89.08
2018-02-11T06:16:16.337Z,89.41
2018-02-11T06:18:47.189Z,88.76
2018-02-11T06:21:18.041Z,89.09
2018-02-11T06:23:48.903Z,88.96
2018-02-11T06:26:19.808Z,88.82
2018-02-11T06:28:50.632Z,88.73
2018-02-11T06:31:21.547Z,88.58
2018-02-11T06:33:52.384Z,88.21
2018-02-11T06:36:23.288Z,88.37
2018-02-11T06:38:54.217Z,88.76
2018-02-11T06:41:25.118Z,88.08
2018-02-11T06:43:55.969Z,88.23
2018-02-11T06:46:26.813Z,88.21
2018-02-11T06:48:57.743Z,87.87
2018-02-11T06:51:28.611Z,87.64
2018-02-11T06:53:59.551Z,87.65
2018-02-11T06:56:30.438Z,87.40
2018-02-11T06:59:01.334Z,86.95
2018-02-11T07:01:32.217Z,86.84
2018-02-11T07:04:03.130Z,86.75
2018-02-11T07:06:33.991Z,87.10
2018-02-11T07:09:04.846Z,86.86
2018-02-11T07:11:35.758Z,86.90
2018-02-11T07:14:06.620Z,86.25
2018-02-11T07:16:37.530Z,86.20
2018-02-11T07:19:08.532Z,86.31
2018-02-11T07:21:39.335Z,85.71
2018-02-11T07:24:10.271Z,85.93
2018-02-11T07:26:41.090Z,85.48
2018-02-11T07:29:11.958Z,85.43
2018-02-11T07:31:42.829Z,84.77
2018-02-11T07:34:13.678Z,84.68
2018-02-11T07:36:44.553Z,84.75
2018-02-11T07:39:15.459Z,84.80
2018-02-11T07:41:46.303Z,84.56
2018-02-11T07:44:17.197Z,83.96
2018-02-11T07:46:48.119Z,83.46
2018-02-11T07:49:19.052Z,82.43
2018-02-11T07:51:49.923Z,81.90
2018-02-11T07:54:20.743Z,82.26
2018-02-11T07:56:51.570Z,82.28
2018-02-11T07:59:22.492Z,81.75
2018-02-11T08:01:53.337Z,81.26
2018-02-11T08:04:24.236Z,80.85
2018-02-11T08:06:55.045Z,80.19
2018-02-11T08:09:25.944Z,80.47
2018-02-11T08:11:56.782Z,79.42
2018-02-11T08:14:27.744Z,79.22
2018-02-11T08:16:58.627Z,79.16
2018-02-11T08:19:29.500Z,77.62
2018-02-11T08:22:00.350Z,76.83
2018-02-11T08:24:31.230Z,75.11
2018-02-11T08:27:02.123Z,72.00
2018-02-11T08:29:32.997Z,68.70
2018-02-11T08:32:03.868Z,68.17
2018-02-11T08:34:34.755Z,71.16
2018-02-11T08:37:05.614Z,70.49
2018-02-11T08:39:36.459Z,70.23
2018-02-11T08:42:07.317Z,71.02
2018-02-11T08:44:38.204Z,71.90
2018-02-11T08:47:09.026Z,71.88
2018-02-11T08:49:39.843Z,71.29
2018-02-11T08:52:10.749Z,71.68
2018-02-11T08:54:41.589Z,71.56
2018-02-11T08:57:12.408Z,71.23
2018-02-11T08:59:43.271Z,72.05
2018-02-11T09:02:14.112Z,73.36
2018-02-11T09:04:45.016Z,73.16
2018-02-11T09:07:15.853Z,72.22
2018-02-11T09:09:46.695Z,73.17
2018-02-11T09:12:17.544Z,72.28
2018-02-11T09:14:48.393Z,70.22
2018-02-11T09:17:19.224Z,69.68
2018-02-11T09:19:50.157Z,68.69
2018-02-11T09:22:21.087Z,67.29
2018-02-11T09:24:51.898Z,65.69
2018-02-11T09:27:22.749Z,64.88
2018-02-11T09:29:53.545Z,65.20
2018-02-11T09:32:24.382Z,64.00
2018-02-11T09:34:55.265Z,66.15
2018-02-11T09:37:26.074Z,66.08
2018-02-11T09:39:56.955Z,67.63
2018-02-11T09:42:27.818Z,66.60
2018-02-11T09:44:58.660Z,67.70
2018-02-11T09:47:30.545Z,66.61
2018-02-11T09:50:01.417Z,65.59
2018-02-11T09:52:33.352Z,64.34
2018-02-11T09:55:05.239Z,64.54
2018-02-11T09:57:36.089Z,62.69
2018-02-11T10:00:06.919Z,64.93
2018-02-11T10:02:37.755Z,64.22
2018-02-11T10:05:08.591Z,64.36
2018-02-11T10:07:40.513Z,63.07
2018-02-11T10:10:11.344Z,60.88
2018-02-11T10:12:43.164Z,62.03
2018-02-11T10:15:14.296Z,65.49
2018-02-11T10:17:45.147Z,63.31
2018-02-11T10:20:17.143Z,61.79
2018-02-11T10:22:48.025Z,62.41
2018-02-11T10:25:19.605Z,63.51
2018-02-11T10:27:50.436Z,64.03
2018-02-11T10:30:21.283Z,61.56
2018-02-11T10:32:52.144Z,62.60
2018-02-11T10:35:22.968Z,65.40
2018-02-11T10:37:53.789Z,64.24
2018-02-11T10:40:24.705Z,63.56
2018-02-11T10:42:55.550Z,64.29
2018-02-11T10:45:26.393Z,66.53
2018-02-11T10:47:57.194Z,64.83
2018-02-11T10:50:28.101Z,64.69
2018-02-11T10:52:58.945Z,63.82
2018-02-11T10:55:29.790Z,64.42
2018-02-11T10:58:00.586Z,64.77
2018-02-11T11:00:31.508Z,62.79
2018-02-11T11:03:02.367Z,62.26
2018-02-11T11:05:33.331Z,62.50
2018-02-11T11:08:05.150Z,62.44
2018-02-11T11:10:35.976Z,63.97
2018-02-11T11:13:06.807Z,64.87
2018-02-11T11:15:37.705Z,64.07
2018-02-11T11:18:08.495Z,65.13
2018-02-11T11:20:39.369Z,65.23
2018-02-11T11:23:10.190Z,65.84
2018-02-11T11:25:41.049Z,66.71
2018-02-11T11:28:11.882Z,66.83
2018-02-11T11:30:42.721Z,66.69
2018-02-11T11:33:13.649Z,66.58
2018-02-11T11:35:44.625Z,66.05
2018-02-11T11:38:15.484Z,66.53
2018-02-11T11:40:46.401Z,68.25
2018-02-11T11:43:17.216Z,66.26
2018-02-11T11:45:48.089Z,67.30
2018-02-11T11:48:18.929Z,69.22
2018-02-11T11:50:49.745Z,71.33
2018-02-11T11:53:20.562Z,71.84
2018-02-11T11:55:51.424Z,71.64
2018-02-11T11:58:22.277Z,72.48
2018-02-11T12:00:53.176Z,72.90
2018-02-11T12:03:24.032Z,70.69
2018-02-11T12:05:54.870Z,72.79
2018-02-11T12:08:25.785Z,69.39
2018-02-11T12:10:56.684Z,68.77
2018-02-11T12:13:27.502Z,68.32
2018-02-11T12:15:58.342Z,73.51
2018-02-11T12:18:29.192Z,75.86
2018-02-11T12:21:00.091Z,76.67
2018-02-11T12:23:30.957Z,77.39
2018-02-11T12:26:01.818Z,79.42
2018-02-11T12:28:32.719Z,78.92
2018-02-11T12:31:03.652Z,78.25
2018-02-11T12:33:34.444Z,78.45
2018-02-11T12:36:05.316Z,77.95
2018-02-11T12:38:37.301Z,77.36
2018-02-11T12:41:08.192Z,77.52
2018-02-11T12:43:39.084Z,77.26
2018-02-11T12:46:09.948Z,80.68
2018-02-11T12:48:40.849Z,80.68
2018-02-11T12:51:11.725Z,83.42
2018-02-11T12:53:43.407Z,84.89
2018-02-11T12:56:14.405Z,85.20
2018-02-11T12:58:45.262Z,86.57
2018-02-11T13:01:16.210Z,86.58
2018-02-11T13:03:49.150Z,85.85
2018-02-11T13:06:20.037Z,86.03
2018-02-11T13:08:50.881Z,86.25
2018-02-11T13:11:22.455Z,86.47
2018-02-11T13:13:53.389Z,85.65
2018-02-11T13:16:24.351Z,85.80
2018-02-11T13:18:55.174Z,85.61
2018-02-11T13:21:26.090Z,86.32
2018-02-11T13:23:56.938Z,87.16
2018-02-11T13:26:27.844Z,87.75
2018-02-11T13:28:58.715Z,87.46
2018-02-11T13:31:29.553Z,87.40
2018-02-11T13:34:00.420Z,88.02
2018-02-11T13:36:31.307Z,88.65
2018-02-11T13:39:02.192Z,89.08
2018-02-11T13:41:33.070Z,88.96
2018-02-11T13:44:03.919Z,87.88
2018-02-11T13:46:34.785Z,88.54
2018-02-11T13:49:05.625Z,89.34
2018-02-11T13:51:36.574Z,89.76
2018-02-11T13:54:07.423Z,89.42
2018-02-11T13:56:38.327Z,89.71
2018-02-11T13:59:09.172Z,90.08
2018-02-11T14:01:40.087Z,90.39
2018-02-11T14:04:10.907Z,91.17
2018-02-11T14:06:41.840Z,91.07
2018-02-11T14:09:12.725Z,90.46
2018-02-11T14:11:43.589Z,89.97
2018-02-11T14:14:14.535Z,89.92
2018-02-11T14:16:45.370Z,90.12
2018-02-11T14:19:16.227Z,91.18
2018-02-11T14:21:47.067Z,90.91
2018-02-11T14:24:17.916Z,90.96
2018-02-11T14:26:48.724Z,91.41
2018-02-11T14:29:19.513Z,92.30
2018-02-11T14:31:50.429Z,92.38
2018-02-11T14:34:21.262Z,92.41
2018-02-11T14:36:58.762Z,92.23
2018-02-11T14:39:29.640Z,93.20
2018-02-11T14:42:01.979Z,93.46
2018-02-11T14:44:33.081Z,93.42
2018-02-11T14:47:04.112Z,93.76
2018-02-11T14:49:35.465Z,94.22
2018-02-11T14:52:08.144Z,94.36
2018-02-11T14:54:39.048Z,94.44
2018-02-11T14:57:09.903Z,94.26
2018-02-11T14:59:40.906Z,94.45
2018-02-11T15:02:11.701Z,94.41
2018-02-11T15:04:42.552Z,94.45
2018-02-11T15:07:13.404Z,94.44
2018-02-11T15:09:44.177Z,94.69
2018-02-11T15:12:15.096Z,94.85
2018-02-11T15:14:45.852Z,94.53
2018-02-11T15:17:17.055Z,94.86
2018-02-11T15:19:47.916Z,94.88
2018-02-11T15:22:18.761Z,94.96
2018-02-11T15:24:49.801Z,94.69
2018-02-11T15:27:20.572Z,95.04
2018-02-11T15:29:51.356Z,95.27
2018-02-11T15:32:26.221Z,95.17
2018-02-11T15:34:56.984Z,95.30
2018-02-11T15:37:27.755Z,95.39
2018-02-11T15:39:58.536Z,95.43
2018-02-11T15:42:30.460Z,95.69
2018-02-11T15:45:01.291Z,95.72
2018-02-11T15:47:32.341Z,95.70
2018-02-11T15:50:03.180Z,95.49
2018-02-11T15:52:34.020Z,95.43
2018-02-11T15:55:04.783Z,95.39
2018-02-11T15:57:35.545Z,95.30
2018-02-11T16:00:06.469Z,95.22
2018-02-11T16:02:37.656Z,95.09
2018-02-11T16:05:08.420Z,95.15
2018-02-11T16:07:39.264Z,94.96
2018-02-11T16:10:10.124Z,94.67
2018-02-11T16:12:40.915Z,94.84
2018-02-11T16:15:11.724Z,94.65
2018-02-11T16:17:42.505Z,95.06
2018-02-11T16:20:13.378Z,95.08
2018-02-11T16:22:44.184Z,95.19
2018-02-11T16:25:14.945Z,94.76
2018-02-11T16:27:45.789Z,94.74
2018-02-11T16:30:16.592Z,94.65
2018-02-11T16:32:47.453Z,94.21
2018-02-11T16:35:18.208Z,94.20
2018-02-11T16:37:49.001Z,94.19
2018-02-11T16:40:19.761Z,94.50
2018-02-11T16:42:50.585Z,94.39
2018-02-11T16:45:21.361Z,94.56
2018-02-11T16:47:52.154Z,94.26
2018-02-11T16:50:22.911Z,94.50
2018-02-11T16:52:53.700Z,93.86
2018-02-11T16:55:24.491Z,93.95
2018-02-11T16:57:55.292Z,93.94
2018-02-11T17:00:26.092Z,93.91
2018-02-11T17:02:56.995Z,93.94
2018-02-11T17:05:27.816Z,93.87
2018-02-11T17:07:58.529Z,93.79
2018-02-11T17:10:29.297Z,93.40
2018-02-11T17:13:00.105Z,93.71
2018-02-11T17:15:30.868Z,94.01
2018-02-11T17:18:01.644Z,93.96
2018-02-11T17:20:32.414Z,93.91
2018-02-11T17:23:03.222Z,93.62
2018-02-11T17:25:33.980Z,93.87
2018-02-11T17:28:04.784Z,93.87
2018-02-11T17:30:35.519Z,93.94
2018-02-11T17:33:06.317Z,93.77
2018-02-11T17:35:37.063Z,93.91
2018-02-11T17:38:07.900Z,94.10
2018-02-11T17:40:38.660Z,94.30
2018-02-11T17:43:09.432Z,94.29
2018-02-11T17:45:40.198Z,94.21
2018-02-11T17:48:10.999Z,94.36
2018-02-11T17:50:41.775Z,94.32
2018-02-11T17:53:12.604Z,94.00
2018-02-11T17:55:43.400Z,93.87
2018-02-11T17:58:14.236Z,93.88
2018-02-11T18:00:44.997Z,93.96
2018-02-11T18:03:16.857Z,93.99
2018-02-11T18:05:47.601Z,93.83
2018-02-11T18:08:18.809Z,93.88
2018-02-11T18:10:49.220Z,93.95
2018-02-11T18:13:19.995Z,93.96
2018-02-11T18:15:50.756Z,93.98
2018-02-11T18:18:21.536Z,93.77
2018-02-11T18:20:52.292Z,93.48
2018-02-11T18:23:23.032Z,93.83
2018-02-11T18:25:53.794Z,93.69
2018-02-11T18:28:24.535Z,93.41
2018-02-11T18:30:57.381Z,93.79
2018-02-11T18:33:28.123Z,93.97
2018-02-11T18:35:58.924Z,93.75
2018-02-11T18:38:29.652Z,93.77
2018-02-11T18:41:00.422Z,93.79
2018-02-11T18:43:31.240Z,93.79
2018-02-11T18:46:02.022Z,93.45
2018-02-11T18:48:32.788Z,93.75
2018-02-11T18:51:03.559Z,93.54
2018-02-11T18:53:34.328Z,93.68
2018-02-11T18:56:05.124Z,93.75
2018-02-11T18:58:35.985Z,93.64
2018-02-11T19:01:06.797Z,93.39
2018-02-11T19:03:37.555Z,93.48
2018-02-11T19:06:08.329Z,93.48
2018-02-11T19:08:39.146Z,93.51
2018-02-11T19:11:10.034Z,93.14
2018-02-11T19:13:40.849Z,93.45
2018-02-11T19:16:11.670Z,93.53
2018-02-11T19:18:42.472Z,93.63
2018-02-11T19:21:13.383Z,93.67
2018-02-11T19:23:44.217Z,93.71
2018-02-11T19:26:15.045Z,93.78
2018-02-11T19:28:45.988Z,93.88
2018-02-11T19:31:16.788Z,94.05
2018-02-11T19:33:54.263Z,94.13
2018-02-11T19:36:27.106Z,94.06
2018-02-11T19:39:00.028Z,94.46
2018-02-11T19:41:32.012Z,94.51
2018-02-11T19:44:02.828Z,94.50
2018-02-11T19:46:33.619Z,94.20
2018-02-11T19:49:08.613Z,93.86
2018-02-11T19:51:39.812Z,94.21
2018-02-11T19:54:15.370Z,94.26
2018-02-11T19:56:46.394Z,94.29
2018-02-11T19:59:19.169Z,94.58
2018-02-11T20:01:50.196Z,94.54
2018-02-11T20:04:21.385Z,94.75
2018-02-11T20:06:52.472Z,94.81
2018-02-11T20:09:23.576Z,94.93
2018-02-11T20:11:54.678Z,94.91
2018-02-11T20:14:33.044Z,95.10
2018-02-11T20:17:04.816Z,95.20
2018-02-11T20:19:35.840Z,95.10
2018-02-11T20:22:06.652Z,94.89
2018-02-11T20:24:37.448Z,95.11
2018-02-11T20:27:08.216Z,95.43
2018-02-11T20:29:39.006Z,95.32
2018-02-11T20:32:09.992Z,95.39
2018-02-11T20:34:40.848Z,95.71
2018-02-11T20:37:11.765Z,95.63
2018-02-11T20:39:42.576Z,95.42
2018-02-11T20:42:13.420Z,95.04
2018-02-11T20:44:44.293Z,95.09
2018-02-11T20:47:15.440Z,95.21
2018-02-11T20:49:46.391Z,95.37
2018-02-11T20:52:17.294Z,95.32
2018-02-11T20:54:48.108Z,95.30
2018-02-11T20:57:18.884Z,95.01
2018-02-11T20:59:49.721Z,95.01
2018-02-11T21:02:24.209Z,95.07
2018-02-11T21:04:55.024Z,95.00
2018-02-11T21:07:25.825Z,94.81
2018-02-11T21:09:56.632Z,95.05
2018-02-11T21:12:27.494Z,94.85
2018-02-11T21:14:58.399Z,94.47
2018-02-11T21:17:29.253Z,94.51
2018-02-11T21:20:00.092Z,94.37
2018-02-11T21:22:30.937Z,94.26
2018-02-11T21:25:01.685Z,94.01
2018-02-11T21:27:32.670Z,93.81
2018-02-11T21:30:03.416Z,93.66
2018-02-11T21:32:34.158Z,93.66
2018-02-11T21:35:04.989Z,93.95
2018-02-11T21:37:35.777Z,93.90
2018-02-11T21:40:16.760Z,93.82
2018-02-11T21:42:53.467Z,94.00
2018-02-11T21:45:32.960Z,93.86
2018-02-11T21:48:03.841Z,93.64
2018-02-11T21:50:41.469Z,93.46
2018-02-11T21:53:12.260Z,93.13
2018-02-11T21:55:43.032Z,93.40
2018-02-11T21:58:15.963Z,93.22
2018-02-11T22:00:46.667Z,93.69
2018-02-11T22:03:17.475Z,93.01
2018-02-11T22:05:48.269Z,92.79
2018-02-11T22:08:19.067Z,93.26
2018-02-11T22:10:49.878Z,93.45
2018-02-11T22:13:25.672Z,93.39
2018-02-11T22:15:56.707Z,93.31
2018-02-11T22:18:27.682Z,93.20
2018-02-11T22:20:58.986Z,93.09
2018-02-11T22:23:30.481Z,93.40
2018-02-11T22:26:01.335Z,93.02
2018-02-11T22:28:32.930Z,92.61
2018-02-11T22:31:05.488Z,92.89
2018-02-11T22:33:36.998Z,92.85
2018-02-11T22:36:15.457Z,92.97
2018-02-11T22:38:46.435Z,93.34
2018-02-11T22:41:19.331Z,93.37
2018-02-11T22:43:50.216Z,93.56
2018-02-11T22:46:34.039Z,93.78
2018-02-11T22:49:04.960Z,94.00
2018-02-11T22:51:35.828Z,94.18
2018-02-11T22:54:06.609Z,94.64
2018-02-11T22:56:42.280Z,94.70
2018-02-11T22:59:13.049Z,94.82
2018-02-11T23:01:45.949Z,94.95
2018-02-11T23:04:16.851Z,95.01
2018-02-11T23:06:47.834Z,95.11
2018-02-11T23:09:18.664Z,95.20
2018-02-11T23:11:49.496Z,95.27
2018-02-11T23:14:22.497Z,95.22
2018-02-11T23:16:53.457Z,95.06
2018-02-11T23:19:24.288Z,95.07
2018-02-11T23:21:55.200Z,95.16
2018-02-11T23:24:26.140Z,95.27
2018-02-11T23:26:57.004Z,95.17
2018-02-11T23:29:46.988Z,95.03
2018-02-11T23:32:17.785Z,94.68
2018-02-11T23:34:55.111Z,94.72
2018-02-11T23:37:25.900Z,94.80
2018-02-11T23:39:56.679Z,94.84
2018-02-11T23:42:27.675Z,94.80
2018-02-11T23:44:58.475Z,94.88
2018-02-11T23:47:29.388Z,95.04
2018-02-11T23:50:00.172Z,94.96
2018-02-11T23:52:31.265Z,94.86
2018-02-11T23:55:02.160Z,94.89
2018-02-11T23:57:33.005Z,95.13
